Time;durP1;ratioP1;P1;durP2;ratioP2;P2;SDS_P1;SDS_P2;PMS_P1;PMS_P2;Temp;Humidity;BMP_temperature;BMP_pressure;BME280_temperature;BME280_humidity;BME280_pressure;Samples;Min_cycle;Max_cycle;Signal;HPM_P1;HPM_P2
2022/03/03 00:01:40;;;;;;;72.25;42.20;;;2.30;99.90;;;;;;4998862;28;20061;-81
2022/03/03 00:04:07;;;;;;;65.72;39.47;;;2.30;99.90;;;;;;4964100;28;20359;-82
2022/03/03 00:06:34;;;;;;;66.65;40.95;;;2.30;99.90;;;;;;4979514;28;20080;-82
2022/03/03 00:08:59;;;;;;;69.80;40.65;;;2.30;99.90;;;;;;4995941;28;20409;-82
2022/03/03 00:11:25;;;;;;;66.38;39.50;;;2.30;99.90;;;;;;4994977;28;20042;-82
2022/03/03 00:13:51;;;;;;;69.05;40.28;;;2.30;99.90;;;;;;4998786;28;20452;-82
2022/03/03 00:16:17;;;;;;;67.88;40.20;;;3.70;99.90;;;;;;4992555;28;20401;-81
2022/03/03 00:18:42;;;;;;;69.75;41.25;;;2.20;99.90;;;;;;4982881;28;20050;-82
2022/03/03 00:21:08;;;;;;;67.43;39.65;;;2.20;99.90;;;;;;4964193;28;20486;-82
2022/03/03 00:23:34;;;;;;;67.13;40.70;;;2.20;99.90;;;;;;4962633;28;20038;-83
2022/03/03 00:26:00;;;;;;;69.32;39.58;;;2.10;99.90;;;;;;5013094;28;20058;-81
2022/03/03 00:28:26;;;;;;;69.32;39.05;;;2.20;99.90;;;;;;4998801;28;20050;-81
2022/03/03 00:30:52;;;;;;;69.18;39.08;;;2.20;99.90;;;;;;4981581;28;20048;-82
2022/03/03 00:33:18;;;;;;;73.05;40.95;;;2.20;99.90;;;;;;4998068;28;20068;-82
2022/03/03 00:35:43;;;;;;;63.45;37.67;;;2.20;99.90;;;;;;4981417;28;20058;-81
2022/03/03 00:38:09;;;;;;;66.13;39.03;;;2.20;99.90;;;;;;4975555;28;20053;-83
2022/03/03 00:40:35;;;;;;;63.30;38.17;;;2.30;99.90;;;;;;4982699;28;20053;-82
2022/03/03 00:43:01;;;;;;;63.47;38.10;;;2.20;99.90;;;;;;4979269;28;20058;-82
2022/03/03 00:45:27;;;;;;;62.80;39.60;;;2.20;99.90;;;;;;4979084;28;20046;-81
2022/03/03 00:47:53;;;;;;;63.10;38.95;;;2.20;99.90;;;;;;4994207;28;20045;-82
2022/03/03 00:50:18;;;;;;;62.42;37.35;;;0.70;99.90;;;;;;4962458;28;20038;-82
2022/03/03 00:52:44;;;;;;;70.43;40.47;;;2.30;99.90;;;;;;4994467;28;20077;-82
2022/03/03 00:55:09;;;;;;;63.28;39.35;;;2.30;99.90;;;;;;4958253;28;20046;-82
2022/03/03 00:57:35;;;;;;;61.97;37.65;;;2.30;99.90;;;;;;4998398;28;20062;-82
2022/03/03 01:00:02;;;;;;;60.30;38.13;;;2.50;99.90;;;;;;4979518;28;20046;-82
2022/03/03 01:02:28;;;;;;;64.00;39.03;;;2.60;99.90;;;;;;4993472;28;20046;-82
2022/03/03 01:04:53;;;;;;;64.70;38.65;;;2.30;99.90;;;;;;4995750;28;20472;-82
2022/03/03 01:07:19;;;;;;;65.53;37.92;;;2.10;99.90;;;;;;4975360;28;20042;-82
2022/03/03 01:09:45;;;;;;;62.50;36.45;;;2.40;99.90;;;;;;4981376;28;20045;-82
2022/03/03 01:12:10;;;;;;;61.67;38.60;;;2.30;99.90;;;;;;4989399;28;20050;-82
2022/03/03 01:14:36;;;;;;;67.00;37.22;;;2.40;99.90;;;;;;4997646;28;20054;-82
2022/03/03 01:17:02;;;;;;;62.22;36.15;;;2.20;99.90;;;;;;4995347;28;20045;-82
2022/03/03 01:19:28;;;;;;;59.58;37.10;;;3.60;99.90;;;;;;4975998;28;20053;-82
2022/03/03 01:21:53;;;;;;;58.78;35.40;;;2.20;99.90;;;;;;4982001;28;20050;-82
2022/03/03 01:24:19;;;;;;;62.53;36.92;;;2.20;99.90;;;;;;4958629;28;1050667;-81
2022/03/03 01:26:45;;;;;;;61.42;38.15;;;2.20;99.90;;;;;;5002157;28;20053;-82
2022/03/03 01:29:10;;;;;;;61.55;36.80;;;2.00;99.90;;;;;;4994923;28;20045;-82
2022/03/03 01:31:36;;;;;;;62.53;36.75;;;2.00;99.90;;;;;;4986657;28;20069;-82
2022/03/03 01:34:02;;;;;;;61.10;36.30;;;3.70;99.90;;;;;;4982764;28;20155;-82
2022/03/03 01:36:28;;;;;;;60.42;36.72;;;2.10;99.90;;;;;;4967055;28;20103;-82
2022/03/03 01:38:53;;;;;;;61.80;35.00;;;2.00;99.90;;;;;;4998269;28;20054;-82
2022/03/03 01:41:19;;;;;;;64.30;36.83;;;2.10;99.90;;;;;;5013308;28;20046;-82
2022/03/03 01:43:44;;;;;;;57.88;35.80;;;2.00;99.90;;;;;;4974063;28;20122;-82
2022/03/03 01:46:10;;;;;;;57.95;36.72;;;2.10;99.90;;;;;;5017903;28;20042;-82
2022/03/03 01:48:36;;;;;;;57.08;35.97;;;2.20;99.90;;;;;;5002483;28;20057;-82
2022/03/03 01:51:01;;;;;;;60.75;35.33;;;2.20;99.90;;;;;;5001936;28;20038;-81
2022/03/03 01:53:27;;;;;;;64.05;37.72;;;2.20;99.90;;;;;;4985375;28;20386;-81
2022/03/03 01:55:54;;;;;;;63.05;36.72;;;2.20;99.90;;;;;;5000737;28;20061;-82
2022/03/03 01:58:20;;;;;;;59.58;36.60;;;2.00;99.90;;;;;;4995257;28;20402;-82
2022/03/03 02:00:45;;;;;;;62.05;37.25;;;2.20;99.90;;;;;;5001258;28;20044;-81
2022/03/03 02:03:11;;;;;;;61.13;35.88;;;2.10;99.90;;;;;;4999023;28;20116;-82
2022/03/03 02:05:37;;;;;;;56.08;35.05;;;2.50;99.90;;;;;;4998732;28;20089;-82
2022/03/03 02:08:05;;;;;;;61.05;36.63;;;2.20;99.90;;;;;;5000833;28;20528;-82
2022/03/03 02:10:32;;;;;;;58.97;36.10;;;0.60;99.90;;;;;;4977476;28;20042;-82
2022/03/03 02:12:57;;;;;;;59.63;36.95;;;2.00;99.90;;;;;;4998099;28;20072;-82
2022/03/03 02:15:23;;;;;;;58.53;36.03;;;2.70;99.90;;;;;;4977997;28;20405;-81
2022/03/03 02:17:49;;;;;;;56.58;36.35;;;2.10;99.90;;;;;;4985366;28;20053;-82
2022/03/03 02:20:19;;;;;;;56.03;35.17;;;2.30;99.90;;;;;;4990845;28;20097;-81
2022/03/03 02:22:44;;;;;;;63.05;36.97;;;2.10;99.90;;;;;;4997040;28;20053;-82
2022/03/03 02:25:10;;;;;;;63.10;38.03;;;2.00;99.90;;;;;;4998187;28;20062;-81
2022/03/03 02:27:36;;;;;;;59.28;36.75;;;2.10;99.90;;;;;;4996359;28;20058;-82
2022/03/03 02:30:01;;;;;;;58.83;36.83;;;2.10;99.90;;;;;;4999197;28;20057;-81
2022/03/03 02:32:27;;;;;;;60.65;35.33;;;2.00;99.90;;;;;;4978749;28;20101;-81
2022/03/03 02:34:53;;;;;;;60.70;35.95;;;1.90;99.90;;;;;;5000293;28;20445;-82
2022/03/03 02:37:18;;;;;;;60.25;36.20;;;1.90;99.90;;;;;;4993161;28;20080;-82
2022/03/03 02:39:44;;;;;;;55.58;35.90;;;1.80;99.90;;;;;;5001204;28;20041;-81
2022/03/03 02:42:09;;;;;;;58.10;34.35;;;1.80;99.90;;;;;;4998481;28;20046;-82
2022/03/03 02:44:35;;;;;;;58.05;33.70;;;0.10;99.90;;;;;;4979059;28;20042;-82
2022/03/03 02:47:01;;;;;;;57.67;34.95;;;1.70;99.90;;;;;;4983179;28;20045;-82
2022/03/03 02:49:26;;;;;;;54.28;34.58;;;1.70;99.90;;;;;;4994426;28;20049;-82
2022/03/03 02:51:52;;;;;;;56.88;34.58;;;1.40;99.90;;;;;;5000526;28;20505;-82
2022/03/03 02:54:18;;;;;;;59.22;34.85;;;1.40;99.90;;;;;;4973672;28;20037;-83
2022/03/03 02:59:28;;;;;;;56.85;34.90;;;2.70;99.90;;;;;;4994579;28;20037;-82
2022/03/03 03:01:53;;;;;;;59.80;35.88;;;2.40;99.90;;;;;;4984186;28;20052;-82
2022/03/03 03:04:19;;;;;;;60.70;35.00;;;1.20;99.90;;;;;;4976328;28;20087;-82
2022/03/03 03:06:44;;;;;;;60.03;35.88;;;1.40;99.90;;;;;;5002474;28;20054;-82
2022/03/03 03:09:10;;;;;;;59.88;34.70;;;1.40;99.90;;;;;;4982417;28;20045;-83
2022/03/03 03:11:36;;;;;;;57.58;34.47;;;1.30;99.90;;;;;;4994595;28;20096;-82
2022/03/03 03:14:02;;;;;;;58.33;35.60;;;1.90;99.90;;;;;;4983042;28;20137;-82
2022/03/03 03:16:28;;;;;;;64.82;36.45;;;1.30;99.90;;;;;;4948836;28;20045;-82
2022/03/03 03:18:53;;;;;;;65.35;38.30;;;1.10;99.90;;;;;;4996457;28;20042;-82
2022/03/03 03:21:19;;;;;;;58.33;35.83;;;1.20;99.90;;;;;;4965613;28;20047;-82
2022/03/03 03:23:44;;;;;;;57.95;34.90;;;1.10;99.90;;;;;;4979532;28;20053;-83
2022/03/03 03:26:10;;;;;;;60.22;36.03;;;1.20;99.90;;;;;;4998493;28;20062;-82
2022/03/03 03:28:35;;;;;;;56.28;37.10;;;1.10;99.90;;;;;;4976663;28;20425;-82
2022/03/03 03:31:01;;;;;;;61.85;35.90;;;1.10;99.90;;;;;;4996609;28;20077;-82
2022/03/03 03:33:26;;;;;;;59.20;35.15;;;1.20;99.90;;;;;;4992754;28;20054;-82
2022/03/03 03:35:52;;;;;;;60.90;36.75;;;1.60;99.90;;;;;;5001278;28;20060;-83
2022/03/03 03:38:17;;;;;;;64.10;37.67;;;1.40;99.90;;;;;;4997702;28;20046;-82
2022/03/03 03:40:43;;;;;;;60.92;35.88;;;2.80;99.90;;;;;;4994686;28;20517;-82
2022/03/03 03:43:09;;;;;;;57.60;35.47;;;1.20;99.90;;;;;;4997690;28;20117;-82
2022/03/03 03:45:35;;;;;;;58.58;35.85;;;1.20;99.90;;;;;;4993592;28;20486;-82
2022/03/03 03:48:01;;;;;;;61.10;35.65;;;1.20;99.90;;;;;;5000438;28;20054;-82
2022/03/03 03:50:28;;;;;;;61.83;36.83;;;1.40;99.90;;;;;;4998428;28;20097;-82
2022/03/03 03:52:54;;;;;;;60.83;36.45;;;1.20;99.90;;;;;;4995111;28;20050;-82
2022/03/03 03:55:20;;;;;;;62.45;36.38;;;1.40;99.90;;;;;;4965092;28;20065;-82
2022/03/03 03:57:46;;;;;;;64.47;35.88;;;1.10;99.90;;;;;;4995605;28;20466;-81
2022/03/03 04:00:13;;;;;;;56.78;35.22;;;0.90;99.90;;;;;;4982410;28;20046;-83
2022/03/03 04:02:43;;;;;;;64.25;36.80;;;1.00;99.90;;;;;;5000346;28;20073;-81
2022/03/03 04:05:10;;;;;;;63.13;35.10;;;1.40;99.90;;;;;;4998953;28;20497;-82
2022/03/03 04:07:37;;;;;;;56.03;34.28;;;1.10;99.90;;;;;;4977203;28;20045;-82
2022/03/03 04:10:03;;;;;;;59.47;34.97;;;1.50;99.90;;;;;;4998593;28;20053;-82
2022/03/03 04:12:29;;;;;;;58.25;35.10;;;0.80;99.90;;;;;;4992868;28;20041;-82
2022/03/03 04:14:55;;;;;;;55.58;32.88;;;0.70;99.90;;;;;;4982358;28;20552;-82
2022/03/03 04:17:20;;;;;;;56.10;34.67;;;0.60;99.90;;;;;;4980284;28;20049;-82
2022/03/03 04:19:46;;;;;;;56.45;34.30;;;0.50;99.90;;;;;;4947376;28;20490;-82
2022/03/03 04:22:11;;;;;;;59.05;34.05;;;0.30;99.90;;;;;;4995384;28;20104;-82
2022/03/03 04:24:37;;;;;;;53.38;31.92;;;1.00;99.90;;;;;;4976653;28;20054;-82
2022/03/03 04:27:04;;;;;;;55.15;32.88;;;0.60;99.90;;;;;;4982245;28;20415;-82
2022/03/03 04:29:29;;;;;;;54.70;33.25;;;0.50;99.90;;;;;;4996650;28;20038;-82
2022/03/03 04:31:57;;;;;;;57.88;35.25;;;0.50;99.90;;;;;;4997143;28;20053;-82
2022/03/03 04:34:25;;;;;;;55.80;34.33;;;2.20;99.90;;;;;;4999118;28;20050;-82
2022/03/03 04:36:51;;;;;;;53.38;34.90;;;0.60;99.90;;;;;;4998634;28;20118;-81
2022/03/03 04:39:20;;;;;;;59.22;33.53;;;0.50;99.90;;;;;;4999291;28;20344;-82
2022/03/03 04:41:45;;;;;;;55.88;33.53;;;0.60;99.90;;;;;;4998618;28;20050;-82
2022/03/03 04:44:14;;;;;;;55.13;33.40;;;0.40;99.90;;;;;;4981356;28;20042;-82
2022/03/03 04:46:41;;;;;;;56.15;33.17;;;0.50;99.90;;;;;;5009636;28;20091;-82
2022/03/03 04:49:07;;;;;;;54.63;33.13;;;0.40;99.90;;;;;;4981277;28;20381;-82
2022/03/03 04:51:36;;;;;;;50.55;31.02;;;0.40;99.90;;;;;;4992236;28;20033;-82
2022/03/03 04:54:04;;;;;;;50.00;31.77;;;1.70;99.90;;;;;;4986845;28;20041;-82
2022/03/03 04:56:29;;;;;;;49.85;31.38;;;0.50;99.90;;;;;;4981431;28;20038;-82
2022/03/03 04:58:55;;;;;;;53.60;31.08;;;0.50;99.90;;;;;;4998596;28;20057;-82
2022/03/03 05:01:21;;;;;;;51.25;29.65;;;0.50;99.90;;;;;;4980537;28;20147;-81
2022/03/03 05:03:46;;;;;;;53.22;31.27;;;0.50;99.90;;;;;;4973106;28;20066;-81
2022/03/03 05:06:12;;;;;;;49.30;30.73;;;0.50;99.90;;;;;;4995188;28;20073;-82
2022/03/03 05:08:38;;;;;;;50.50;32.15;;;0.50;99.90;;;;;;4999429;28;20046;-82
2022/03/03 05:11:03;;;;;;;49.90;30.30;;;1.50;99.90;;;;;;4998214;28;20045;-82
2022/03/03 05:13:29;;;;;;;54.67;31.30;;;1.30;99.90;;;;;;4982379;28;20401;-82
2022/03/03 05:15:55;;;;;;;52.70;31.45;;;0.40;99.90;;;;;;4998682;28;20057;-82
2022/03/03 05:18:20;;;;;;;48.78;30.40;;;0.60;99.90;;;;;;4979823;28;20533;-82
2022/03/03 05:20:46;;;;;;;48.78;29.77;;;;;;;;;;4962760;28;20365;-82
2022/03/03 05:23:12;;;;;;;47.70;31.33;;;0.40;99.90;;;;;;4979245;28;20049;-82
2022/03/03 05:25:38;;;;;;;46.92;29.70;;;2.50;99.90;;;;;;4962404;28;20275;-81
2022/03/03 05:28:04;;;;;;;52.72;30.73;;;-0.20;99.90;;;;;;4978646;28;20085;-82
2022/03/03 05:30:29;;;;;;;48.90;30.77;;;0.50;99.90;;;;;;4974952;28;20129;-81
2022/03/03 05:32:55;;;;;;;48.65;30.48;;;0.40;99.90;;;;;;4997407;28;20529;-82
2022/03/03 05:35:21;;;;;;;48.45;29.23;;;1.60;99.90;;;;;;4979993;28;20048;-82
2022/03/03 05:37:47;;;;;;;52.70;29.95;;;2.20;99.90;;;;;;4976413;28;20129;-82
2022/03/03 05:40:13;;;;;;;49.08;30.92;;;0.30;99.90;;;;;;4980960;28;20038;-82
2022/03/03 05:42:39;;;;;;;46.97;30.15;;;0.20;99.90;;;;;;4991851;28;20153;-82
2022/03/03 05:45:08;;;;;;;47.38;29.05;;;1.70;99.90;;;;;;4981306;28;21027;-82
2022/03/03 05:47:34;;;;;;;47.67;28.27;;;0.20;99.90;;;;;;4991201;28;20076;-82
2022/03/03 05:50:01;;;;;;;41.65;27.83;;;0.30;99.90;;;;;;4998454;28;20510;-82
2022/03/03 05:52:27;;;;;;;47.03;27.48;;;0.20;99.90;;;;;;4998127;28;20568;-82
2022/03/03 05:54:52;;;;;;;50.22;29.15;;;0.10;99.90;;;;;;4982213;28;20041;-82
2022/03/03 05:57:25;;;;;;;46.35;29.40;;;0.10;99.90;;;;;;4998707;28;20404;-81
2022/03/03 05:59:51;;;;;;;43.65;27.40;;;0.20;99.90;;;;;;5014911;28;20430;-82
2022/03/03 06:02:19;;;;;;;46.50;29.08;;;0.10;99.90;;;;;;4999075;28;20052;-82
2022/03/03 06:04:48;;;;;;;49.22;29.13;;;-1.50;99.90;;;;;;4975922;28;20042;-81
2022/03/03 06:07:22;;;;;;;49.47;29.17;;;0.10;99.90;;;;;;4998291;28;20050;-82
2022/03/03 06:09:52;;;;;;;47.27;28.30;;;0.20;99.90;;;;;;4996112;28;20156;-82
2022/03/03 06:12:20;;;;;;;47.67;29.10;;;0.20;99.90;;;;;;5000496;28;20049;-82
2022/03/03 06:14:52;;;;;;;46.90;27.83;;;0.20;99.90;;;;;;4978639;28;20058;-81
2022/03/03 06:17:25;;;;;;;48.42;29.17;;;-1.00;99.90;;;;;;4984294;28;20125;-82
2022/03/03 06:19:52;;;;;;;50.15;29.52;;;0.00;99.90;;;;;;4995399;28;20073;-82
2022/03/03 06:22:19;;;;;;;43.88;28.05;;;0.20;99.90;;;;;;5000150;28;20045;-82
2022/03/03 06:24:45;;;;;;;44.38;28.80;;;0.90;99.90;;;;;;4994282;28;20057;-82
2022/03/03 06:27:11;;;;;;;42.58;28.15;;;0.20;99.90;;;;;;4985044;28;20113;-82
2022/03/03 06:29:38;;;;;;;46.13;28.80;;;0.80;99.90;;;;;;4993583;28;20498;-81
2022/03/03 06:32:06;;;;;;;48.58;28.75;;;0.10;99.90;;;;;;4984702;28;20509;-82
2022/03/03 06:34:32;;;;;;;48.38;28.63;;;0.00;99.90;;;;;;4997875;28;20402;-81
2022/03/03 06:36:57;;;;;;;48.35;28.35;;;0.00;99.90;;;;;;4995903;28;20042;-82
2022/03/03 06:39:23;;;;;;;47.22;29.80;;;0.00;99.90;;;;;;4999956;28;20046;-81
2022/03/03 06:41:50;;;;;;;46.15;27.40;;;0.10;99.90;;;;;;4993943;28;20091;-81
2022/03/03 06:44:15;;;;;;;45.80;28.88;;;0.00;99.90;;;;;;5000367;28;20049;-82
2022/03/03 06:46:42;;;;;;;45.78;28.33;;;0.00;99.90;;;;;;4969666;28;20041;-81
2022/03/03 06:49:07;;;;;;;46.90;29.02;;;0.00;99.90;;;;;;4978449;28;20089;-82
2022/03/03 06:51:47;;;;;;;46.40;29.08;;;-0.20;99.90;;;;;;4976892;28;20564;-82
2022/03/03 06:54:21;;;;;;;49.63;28.90;;;-0.10;99.90;;;;;;5005293;28;20057;-82
2022/03/03 06:56:57;;;;;;;45.08;28.45;;;0.60;99.90;;;;;;4990165;28;20117;-81
2022/03/03 06:59:33;;;;;;;43.28;28.08;;;-0.10;99.90;;;;;;5009926;28;20038;-82
2022/03/03 07:02:00;;;;;;;50.78;27.77;;;-0.10;99.90;;;;;;4998326;28;20049;-82
2022/03/03 07:04:28;;;;;;;45.03;28.05;;;-0.10;99.90;;;;;;5000079;28;20058;-82
2022/03/03 07:06:54;;;;;;;50.50;31.48;;;-0.20;99.90;;;;;;4990273;28;20050;-81
2022/03/03 07:09:20;;;;;;;53.88;30.80;;;0.00;99.90;;;;;;4994852;28;20041;-81
2022/03/03 07:11:46;;;;;;;46.65;27.90;;;-0.10;99.90;;;;;;4994293;28;20056;-81
2022/03/03 07:14:13;;;;;;;48.30;28.60;;;0.00;99.90;;;;;;4987516;28;20095;-83
2022/03/03 07:17:05;;;;;;;49.65;29.38;;;0.80;99.90;;;;;;5002157;28;20493;-81
2022/03/03 07:20:04;;;;;;;47.15;28.80;;;0.10;99.90;;;;;;4994435;28;20042;-82
2022/03/03 07:22:38;;;;;;;50.17;29.15;;;0.20;99.90;;;;;;4992825;28;20077;-82
2022/03/03 07:25:05;;;;;;;44.67;29.55;;;0.20;99.90;;;;;;4995975;28;20124;-81
2022/03/03 07:27:31;;;;;;;43.78;27.65;;;0.30;99.90;;;;;;5000814;28;20057;-82
2022/03/03 07:30:05;;;;;;;45.63;28.55;;;0.30;99.90;;;;;;4983087;28;20038;-82
2022/03/03 07:32:37;;;;;;;49.22;29.92;;;0.30;99.90;;;;;;4999720;28;20042;-83
2022/03/03 07:35:12;;;;;;;48.88;29.90;;;0.30;99.90;;;;;;5000719;28;20045;-82
2022/03/03 07:37:55;;;;;;;47.22;28.77;;;0.40;99.90;;;;;;4999075;28;20046;-81
2022/03/03 07:40:20;;;;;;;46.55;29.02;;;0.50;99.90;;;;;;4999880;28;20030;-91
2022/03/03 07:42:48;;;;;;;50.72;30.23;;;0.30;99.90;;;;;;4992384;28;20057;-83
2022/03/03 07:45:14;;;;;;;47.20;29.30;;;0.50;99.90;;;;;;5001819;28;20038;-82
2022/03/03 07:47:41;;;;;;;42.38;27.30;;;0.50;99.90;;;;;;5007032;28;20044;-82
2022/03/03 07:50:07;;;;;;;45.88;28.65;;;0.60;99.90;;;;;;4999999;28;20057;-82
2022/03/03 07:52:34;;;;;;;51.28;31.00;;;0.70;99.90;;;;;;4984714;28;20038;-83
2022/03/03 07:54:59;;;;;;;44.90;28.20;;;0.70;99.90;;;;;;4995515;28;20130;-83
2022/03/03 07:57:35;;;;;;;48.20;29.02;;;1.30;99.90;;;;;;5002504;28;20132;-83
2022/03/03 08:00:09;;;;;;;45.63;28.58;;;0.80;99.90;;;;;;5015471;28;20042;-82
2022/03/03 08:02:35;;;;;;;52.07;30.47;;;0.90;99.90;;;;;;4993792;28;20065;-83
2022/03/03 08:05:04;;;;;;;43.50;29.00;;;0.90;99.90;;;;;;5001175;28;20116;-82
2022/03/03 08:07:38;;;;;;;47.35;29.05;;;1.00;99.90;;;;;;5010303;28;20049;-82
2022/03/03 08:10:07;;;;;;;48.50;28.98;;;1.10;99.90;;;;;;4993582;28;20057;-82
2022/03/03 08:12:33;;;;;;;51.03;30.73;;;1.20;99.90;;;;;;5006363;28;20490;-82
2022/03/03 08:14:59;;;;;;;46.92;29.92;;;1.70;99.90;;;;;;5001609;28;20144;-83
2022/03/03 08:17:25;;;;;;;49.40;30.73;;;1.30;99.90;;;;;;5000896;28;20485;-82
2022/03/03 08:19:55;;;;;;;41.28;26.00;;;1.30;99.90;;;;;;4984826;28;20077;-82
2022/03/03 08:22:25;;;;;;;47.67;28.42;;;3.10;99.90;;;;;;4977172;28;20092;-82
2022/03/03 08:24:55;;;;;;;42.45;28.30;;;1.40;99.90;;;;;;4982310;28;20501;-82
2022/03/03 08:27:22;;;;;;;42.88;28.67;;;1.50;99.90;;;;;;4984785;28;20085;-83
2022/03/03 08:29:49;;;;;;;44.20;27.95;;;1.60;99.90;;;;;;5000268;28;20393;-80
2022/03/03 08:32:17;;;;;;;48.97;28.80;;;1.60;99.90;;;;;;4982033;28;20107;-82
2022/03/03 08:35:11;;;;;;;43.47;28.98;;;1.70;99.90;;;;;;4982897;28;20038;-82
2022/03/03 08:37:44;;;;;;;45.05;29.00;;;1.80;99.90;;;;;;4985155;28;20050;-82
2022/03/03 08:40:14;;;;;;;44.33;27.98;;;1.70;99.90;;;;;;5001125;28;20037;-81
2022/03/03 08:42:49;;;;;;;42.83;28.83;;;1.90;99.90;;;;;;4983884;28;20473;-82
2022/03/03 08:45:19;;;;;;;46.88;27.75;;;1.80;99.90;;;;;;5001221;28;20396;-82
2022/03/03 08:47:57;;;;;;;49.38;27.63;;;2.00;99.90;;;;;;4998343;28;20045;-81
2022/03/03 08:50:27;;;;;;;42.80;27.65;;;2.10;99.90;;;;;;4974848;28;20117;-82
2022/03/03 08:52:56;;;;;;;47.53;26.13;;;2.10;99.90;;;;;;4977940;28;20042;-82
2022/03/03 08:55:23;;;;;;;43.70;26.60;;;2.30;99.90;;;;;;4986707;28;20046;-82
2022/03/03 08:57:49;;;;;;;38.10;26.08;;;2.50;99.90;;;;;;4981472;28;20041;-81
2022/03/03 09:00:15;;;;;;;36.20;24.58;;;2.50;99.90;;;;;;4984701;28;20033;-82
2022/03/03 09:02:41;;;;;;;40.75;25.88;;;2.60;99.90;;;;;;5001491;28;20049;-82
2022/03/03 09:05:07;;;;;;;38.70;25.38;;;2.70;99.90;;;;;;5000022;28;20362;-82
2022/03/03 09:07:33;;;;;;;36.95;24.40;;;2.80;99.90;;;;;;4984557;28;20488;-82
2022/03/03 09:09:59;;;;;;;36.80;25.13;;;2.90;99.90;;;;;;4987750;28;20096;-83
2022/03/03 09:12:25;;;;;;;37.22;25.23;;;3.00;99.90;;;;;;4984613;28;20129;-83
2022/03/03 09:14:51;;;;;;;36.95;25.15;;;3.10;99.90;;;;;;5000315;28;20418;-82
2022/03/03 09:17:16;;;;;;;36.20;24.30;;;3.20;99.90;;;;;;5000483;28;20374;-83
2022/03/03 09:19:42;;;;;;;38.92;23.98;;;3.20;99.90;;;;;;4999982;28;20091;-83
2022/03/03 09:22:09;;;;;;;33.63;23.08;;;3.40;99.90;;;;;;4991426;28;20091;-83
2022/03/03 09:24:34;;;;;;;34.17;22.73;;;3.50;99.90;;;;;;4999604;28;20136;-83
2022/03/03 09:27:00;;;;;;;34.78;23.73;;;3.60;99.90;;;;;;4996303;28;20133;-83
2022/03/03 09:29:28;;;;;;;38.58;25.08;;;3.60;99.90;;;;;;4993592;28;20488;-83
2022/03/03 09:31:53;;;;;;;35.85;23.17;;;3.80;99.90;;;;;;4982984;28;20045;-82
2022/03/03 09:34:19;;;;;;;38.13;22.63;;;3.90;99.90;;;;;;4998405;28;20046;-92
2022/03/03 09:36:44;;;;;;;34.13;22.35;;;3.90;99.90;;;;;;4994694;28;20481;-84
2022/03/03 09:39:10;;;;;;;32.17;21.88;;;4.00;99.90;;;;;;5000252;28;20454;-83
2022/03/03 09:41:36;;;;;;;33.63;22.50;;;4.10;99.90;;;;;;5000857;28;20046;-83
2022/03/03 09:44:01;;;;;;;36.08;23.63;;;4.10;99.90;;;;;;4997171;28;20060;-83
2022/03/03 09:46:27;;;;;;;31.48;22.50;;;4.20;99.90;;;;;;5005142;28;20084;-83
2022/03/03 09:48:53;;;;;;;31.23;21.38;;;4.90;99.90;;;;;;4993681;28;20485;-82
2022/03/03 09:51:18;;;;;;;31.17;20.40;;;4.30;99.90;;;;;;4997749;28;20046;-83
2022/03/03 09:53:49;;;;;;;31.60;22.38;;;4.00;99.90;;;;;;4987950;28;20113;-82
2022/03/03 09:56:15;;;;;;;29.10;20.67;;;4.50;99.90;;;;;;4988235;28;20034;-83
2022/03/03 09:58:41;;;;;;;31.65;20.63;;;4.60;99.90;;;;;;5004798;28;20053;-83
2022/03/03 10:01:08;;;;;;;32.42;20.75;;;4.70;99.90;;;;;;4996553;28;20042;-83
2022/03/03 10:03:35;;;;;;;30.98;19.38;;;4.80;99.90;;;;;;4983104;28;20418;-83
2022/03/03 10:06:01;;;;;;;30.70;18.45;;;4.90;99.90;;;;;;4990573;28;20044;-83
2022/03/03 10:08:29;;;;;;;27.38;18.83;;;5.00;99.90;;;;;;4999076;28;20053;-82
2022/03/03 10:11:03;;;;;;;26.85;18.73;;;5.30;99.90;;;;;;5001246;28;20479;-81
2022/03/03 10:13:50;;;;;;;30.20;18.67;;;5.30;99.90;;;;;;4981881;28;20050;-81
2022/03/03 10:16:22;;;;;;;27.33;18.98;;;5.40;99.90;;;;;;4982695;28;20073;-81
2022/03/03 10:18:57;;;;;;;27.08;17.35;;;5.40;99.90;;;;;;4987091;28;20327;-81
2022/03/03 10:21:27;;;;;;;33.75;18.63;;;5.50;99.90;;;;;;5003245;28;20044;-81
2022/03/03 10:23:52;;;;;;;25.33;18.80;;;5.60;99.90;;;;;;5005696;28;20037;-81
2022/03/03 10:26:19;;;;;;;23.30;17.88;;;5.60;99.90;;;;;;4987414;28;20050;-82
2022/03/03 10:28:48;;;;;;;24.58;18.40;;;5.70;99.90;;;;;;4986489;28;20108;-80
2022/03/03 10:31:15;;;;;;;25.30;17.48;;;5.80;99.90;;;;;;4999424;28;20115;-82
2022/03/03 10:33:45;;;;;;;25.15;18.08;;;5.80;99.90;;;;;;5005610;28;20132;-82
2022/03/03 10:36:14;;;;;;;25.42;16.63;;;5.80;99.90;;;;;;5003506;28;20069;-82
2022/03/03 10:38:52;;;;;;;19.85;16.08;;;5.90;99.90;;;;;;5003499;28;20054;-82
2022/03/03 10:41:34;;;;;;;24.63;17.75;;;6.00;99.90;;;;;;4996368;28;20107;-82
2022/03/03 10:44:11;;;;;;;25.85;17.45;;;6.10;99.90;;;;;;5003573;28;20512;-83
2022/03/03 10:46:59;;;;;;;23.23;16.15;;;6.20;99.90;;;;;;5004781;28;20041;-82
2022/03/03 10:49:26;;;;;;;26.55;15.77;;;6.30;99.90;;;;;;4998639;28;20616;-81
2022/03/03 10:51:52;;;;;;;19.83;15.20;;;6.50;99.90;;;;;;4988834;28;20432;-81
2022/03/03 10:54:18;;;;;;;20.23;15.50;;;6.50;99.90;;;;;;5002238;28;20136;-82
2022/03/03 10:56:48;;;;;;;21.90;15.63;;;6.70;99.90;;;;;;5013025;28;20107;-81
2022/03/03 10:59:25;;;;;;;18.58;14.73;;;6.80;99.90;;;;;;4979639;28;20083;-82
2022/03/03 11:01:52;;;;;;;18.83;14.07;;;6.90;99.90;;;;;;4986859;28;20041;-82
2022/03/03 11:04:20;;;;;;;19.83;14.55;;;7.00;99.90;;;;;;4993537;28;20120;-81
2022/03/03 11:06:52;;;;;;;22.00;15.68;;;7.00;99.90;;;;;;4984657;28;20052;-80
2022/03/03 11:09:18;;;;;;;20.85;15.32;;;7.10;99.90;;;;;;4984239;28;20065;-83
2022/03/03 11:11:45;;;;;;;20.20;14.10;;;7.20;99.90;;;;;;5002226;28;20437;-82
2022/03/03 11:14:11;;;;;;;20.83;14.88;;;7.10;99.90;;;;;;4637705;28;9999850;-81
2022/03/03 11:16:37;;;;;;;21.67;14.48;;;6.90;99.90;;;;;;4997453;28;20432;-81
2022/03/03 11:19:04;;;;;;;20.52;14.45;;;7.40;99.90;;;;;;4986392;28;20405;-81
2022/03/03 11:21:29;;;;;;;18.45;14.20;;;7.50;99.90;;;;;;4987496;28;20108;-81
2022/03/03 11:23:59;;;;;;;19.65;14.27;;;7.60;99.90;;;;;;4979605;28;20156;-82
2022/03/03 11:26:41;;;;;;;20.15;13.57;;;7.80;99.90;;;;;;4998317;28;20410;-81
2022/03/03 11:29:15;;;;;;;19.92;14.07;;;7.90;99.90;;;;;;4999896;28;20058;-82
2022/03/03 11:31:43;;;;;;;21.48;16.15;;;7.90;99.90;;;;;;4999468;28;20796;-82
2022/03/03 11:34:29;;;;;;;21.90;16.65;;;7.90;99.90;;;;;;4980672;28;20075;-82
2022/03/03 11:37:04;;;;;;;24.58;16.20;;;7.90;99.90;;;;;;4980127;28;20096;-82
2022/03/03 11:39:54;;;;;;;23.48;15.93;;;8.00;99.90;;;;;;4991860;28;20650;-82
2022/03/03 11:42:53;;;;;;;20.90;16.23;;;8.10;99.90;;;;;;4983374;28;20465;-80
2022/03/03 11:45:28;;;;;;;18.23;14.65;;;8.10;99.90;;;;;;4973284;28;20074;-81
2022/03/03 11:48:10;;;;;;;18.85;13.68;;;8.20;99.90;;;;;;4982860;28;20461;-81
2022/03/03 11:50:36;;;;;;;21.75;15.60;;;8.30;99.90;;;;;;5000005;28;20103;-81
2022/03/03 11:53:02;;;;;;;20.27;15.73;;;8.40;99.90;;;;;;4980979;28;20049;-81
2022/03/03 11:55:35;;;;;;;20.80;16.33;;;10.00;99.90;;;;;;4993040;28;20054;-81
2022/03/03 11:58:08;;;;;;;23.52;16.17;;;8.40;99.90;;;;;;5017287;28;20045;-82
2022/03/03 12:01:08;;;;;;;19.95;14.60;;;8.50;99.90;;;;;;4997719;28;20092;-82
2022/03/03 12:04:00;;;;;;;19.55;15.65;;;8.50;99.90;;;;;;4935569;28;20128;-81
2022/03/03 12:06:47;;;;;;;19.45;15.63;;;9.20;99.90;;;;;;4977529;28;20124;-83
2022/03/03 12:09:32;;;;;;;20.85;15.50;;;8.70;99.90;;;;;;4999326;28;20430;-83
2022/03/03 12:12:17;;;;;;;20.80;15.32;;;8.70;99.90;;;;;;4997053;28;20038;-82
2022/03/03 12:14:58;;;;;;;23.02;16.30;;;8.80;99.90;;;;;;4985962;28;20490;-82
2022/03/03 12:17:54;;;;;;;20.63;15.10;;;8.90;99.90;;;;;;4975241;28;20091;-83
2022/03/03 12:20:30;;;;;;;25.08;16.30;;;8.90;99.90;;;;;;4993486;28;20048;-82
2022/03/03 12:23:16;;;;;;;24.30;16.65;;;9.00;99.90;;;;;;5000695;28;20520;-83
2022/03/03 12:25:47;;;;;;;22.55;15.77;;;9.00;99.90;;;;;;5000419;28;20062;-83
2022/03/03 12:28:20;;;;;;;22.52;16.55;;;9.10;99.90;;;;;;4996781;28;20065;-79
2022/03/03 12:30:48;;;;;;;21.85;16.55;;;9.10;99.90;;;;;;5000722;28;20070;-81
2022/03/03 12:33:22;;;;;;;21.15;17.05;;;9.20;99.90;;;;;;4972548;28;20042;-83
2022/03/03 12:35:48;;;;;;;23.02;16.42;;;9.30;99.90;;;;;;4997013;28;20064;-82
2022/03/03 12:38:13;;;;;;;21.17;15.82;;;9.40;99.90;;;;;;4996532;28;20080;-80
2022/03/03 12:40:39;;;;;;;19.58;15.10;;;9.50;99.90;;;;;;4990056;28;20081;-83
2022/03/03 12:43:15;;;;;;;17.77;14.20;;;9.50;99.90;;;;;;4998673;28;20092;-83
2022/03/03 12:45:41;;;;;;;18.10;14.45;;;9.70;99.90;;;;;;4976706;28;20041;-84